Main page
METAR-TAF:

METAR-TAF

Airports :

Shahrekord Airport

Shahrekord, Iran

latitude: 32-20N, longitude: 050-51E, elevation: 2078 m

Current weather observation

The report was made 24 minutes ago, at 17:00 UTC
Wind 6 kt from the West/Northwest
Temperature -1°C
Humidity 64%
Pressure 1020 hPa
Visibility 10 km or more
Scattered clouds at a height of 4000 ft
Scattered clouds at a height of 9000 ft

METAR: OIFS 251700Z 30006KT 9999 SCT040 SCT090 M01/M07 Q1020

Time: 20:54 (17:24 UTC)


TAF: missing

Weather observations and forecasts of more than 4000 airports (METAR and TAF reports).

The available stations are represented by yellow and red dots on the map.

Hover mouse over dot to see the name of the station.

Then click to see weather observations and forecasts.

To change the map : click on the green buttons with a black cross to zoom in, on the green button with a dash to zoom out, or on the green arrows for adjacent maps.


METAR-TAF: